Time;durP1;ratioP1;P1;durP2;ratioP2;P2;SDS_P1;SDS_P2;PMS_P1;PMS_P2;Temp;Humidity;BMP_temperature;BMP_pressure;BME280_temperature;BME280_humidity;BME280_pressure;Samples;Min_cycle;Max_cycle;Signal;HPM_P1;HPM_P2
2022/04/19 00:01:21;;;;;;;5.30;1.83;;;11.20;96.00;;;;;;7395487;19;20585;-80
2022/04/19 00:03:47;;;;;;;2.27;1.60;;;11.30;96.00;;;;;;7388719;19;20180;-80
2022/04/19 00:06:13;;;;;;;3.03;2.00;;;11.50;95.90;;;;;;7390866;19;20142;-81
2022/04/19 00:08:39;;;;;;;2.20;1.73;;;11.50;96.00;;;;;;7392770;19;20582;-81
2022/04/19 00:11:05;;;;;;;3.17;1.63;;;11.70;95.90;;;;;;7388555;19;20137;-81
2022/04/19 00:13:31;;;;;;;2.40;1.80;;;11.80;95.80;;;;;;7387394;19;20142;-78
2022/04/19 00:15:57;;;;;;;3.97;1.77;;;11.90;95.60;;;;;;7385954;19;20182;-78
2022/04/19 00:18:24;;;;;;;2.90;1.80;;;11.70;96.00;;;;;;7385149;19;20136;-79
2022/04/19 00:20:54;;;;;;;2.50;1.93;;;11.40;96.50;;;;;;7392355;19;20137;-78
2022/04/19 00:23:20;;;;;;;3.57;1.80;;;11.20;96.80;;;;;;7395475;19;20150;-79
2022/04/19 00:25:48;;;;;;;5.65;2.47;;;11.20;97.10;;;;;;7390430;19;20213;-78
2022/04/19 00:28:14;;;;;;;2.87;1.90;;;11.40;96.90;;;;;;7394254;19;20162;-82
2022/04/19 00:30:41;;;;;;;2.60;1.77;;;11.40;96.80;;;;;;7389169;19;20532;-79
2022/04/19 00:33:10;;;;;;;2.40;1.70;;;11.50;97.00;;;;;;7391066;19;20194;-79
2022/04/19 00:35:37;;;;;;;3.17;1.50;;;11.30;97.00;;;;;;7392172;19;20134;-80
2022/04/19 00:38:04;;;;;;;3.23;1.60;;;11.40;97.10;;;;;;7387140;19;20130;-78
2022/04/19 00:40:30;;;;;;;2.60;1.70;;;11.70;96.80;;;;;;7386443;19;20135;-79
2022/04/19 00:42:57;;;;;;;2.83;1.70;;;11.60;96.80;;;;;;7387150;19;20178;-78
2022/04/19 00:45:23;;;;;;;3.67;1.83;;;11.30;97.10;;;;;;7388398;19;20151;-78
2022/04/19 00:47:51;;;;;;;3.73;2.20;;;11.10;97.80;;;;;;7391559;19;20152;-78
2022/04/19 00:50:17;;;;;;;2.60;2.00;;;11.00;98.20;;;;;;7388392;19;20131;-79
2022/04/19 00:52:43;;;;;;;3.80;1.77;;;11.20;97.80;;;;;;7387151;19;20150;-78
2022/04/19 00:55:10;;;;;;;4.13;1.90;;;11.40;97.80;;;;;;7386480;19;20149;-78
2022/04/19 00:57:42;;;;;;;2.20;1.70;;;11.50;97.60;;;;;;7386051;19;20230;-81
2022/04/19 01:00:12;;;;;;;2.53;1.93;;;11.70;97.30;;;;;;7386937;19;20147;-80
2022/04/19 01:02:39;;;;;;;2.33;1.30;;;11.50;97.30;;;;;;7390184;19;20158;-80
2022/04/19 01:05:05;;;;;;;2.77;2.07;;;11.00;98.10;;;;;;7390596;19;20141;-79
2022/04/19 01:07:32;;;;;;;3.70;2.13;;;11.20;98.30;;;;;;7390468;19;20146;-81
2022/04/19 01:09:58;;;;;;;4.57;2.10;;;11.40;98.00;;;;;;7387867;19;20133;-81
2022/04/19 01:15:10;;;;;;;3.33;1.77;;;11.50;97.80;;;;;;7387813;19;20182;-78
2022/04/19 01:17:39;;;;;;;2.50;1.73;;;11.10;98.10;;;;;;7385939;19;20681;-78
2022/04/19 01:20:12;;;;;;;2.53;1.83;;;11.10;98.50;;;;;;7387595;19;20138;-77
2022/04/19 01:22:39;;;;;;;3.07;2.00;;;11.10;98.30;;;;;;7386486;19;20150;-80
2022/04/19 01:25:06;;;;;;;3.37;2.00;;;10.90;98.70;;;;;;7388899;19;20151;-81
2022/04/19 01:27:33;;;;;;;4.40;1.70;;;11.10;98.50;;;;;;7390017;19;20164;-80
2022/04/19 01:30:03;;;;;;;2.47;1.53;;;11.10;98.50;;;;;;7386609;19;20649;-79
2022/04/19 01:32:30;;;;;;;2.77;1.60;;;11.10;98.40;;;;;;7392964;19;20138;-82
2022/04/19 01:35:12;;;;;;;3.30;1.60;;;11.20;98.20;;;;;;7395668;19;20146;-79
2022/04/19 01:37:40;;;;;;;5.43;1.90;;;11.20;98.00;;;;;;7390227;19;20142;-78
2022/04/19 01:40:16;;;;;;;2.67;1.87;;;11.20;97.70;;;;;;7393576;19;20156;-79
2022/04/19 01:42:45;;;;;;;3.90;2.10;;;11.10;97.80;;;;;;7390900;19;20177;-77
2022/04/19 01:45:15;;;;;;;2.50;1.97;;;10.90;98.00;;;;;;7393690;19;20142;-82
2022/04/19 01:47:43;;;;;;;2.30;1.70;;;10.90;98.30;;;;;;7401908;19;20122;-81
2022/04/19 01:50:10;;;;;;;2.83;1.50;;;10.90;98.10;;;;;;7392912;19;20131;-78
2022/04/19 01:52:41;;;;;;;2.43;1.67;;;10.80;98.50;;;;;;7395520;19;20131;-80
2022/04/19 01:55:09;;;;;;;2.10;1.57;;;11.00;98.00;;;;;;7394735;19;20146;-81
2022/04/19 01:57:36;;;;;;;3.00;1.47;;;11.10;97.80;;;;;;7391495;19;20201;-80
2022/04/19 02:00:05;;;;;;;2.47;1.33;;;10.90;97.90;;;;;;7391626;19;20138;-80
2022/04/19 02:02:32;;;;;;;4.13;1.20;;;10.90;98.10;;;;;;7391728;19;20151;-80
2022/04/19 02:04:57;;;;;;;2.27;1.77;;;10.90;98.20;;;;;;7391783;19;20513;-79
2022/04/19 02:07:23;;;;;;;2.80;1.60;;;11.10;97.40;;;;;;7399803;19;20146;-79
2022/04/19 02:09:49;;;;;;;1.90;1.50;;;11.10;97.30;;;;;;7391288;19;20126;-82
2022/04/19 02:12:15;;;;;;;2.67;1.67;;;11.00;97.20;;;;;;7392473;19;20202;-82
2022/04/19 02:14:42;;;;;;;2.20;1.80;;;11.00;97.50;;;;;;7395239;19;20154;-80
2022/04/19 02:17:09;;;;;;;3.50;1.60;;;10.50;98.10;;;;;;7392257;19;20676;-82
2022/04/19 02:19:36;;;;;;;1.73;1.57;;;10.60;98.40;;;;;;7393624;19;20567;-82
2022/04/19 02:22:05;;;;;;;1.53;1.27;;;10.60;98.70;;;;;;7393738;19;20217;-79
2022/04/19 02:24:31;;;;;;;4.33;1.70;;;10.10;99.40;;;;;;7391423;19;20207;-82
2022/04/19 02:26:57;;;;;;;2.17;1.37;;;9.70;99.80;;;;;;7395875;19;20143;-77
2022/04/19 02:29:25;;;;;;;3.13;1.73;;;10.00;99.90;;;;;;7392322;19;20143;-78
2022/04/19 02:31:51;;;;;;;2.03;1.60;;;10.20;99.90;;;;;;7390775;19;20482;-80
2022/04/19 02:34:18;;;;;;;3.00;1.73;;;10.10;99.90;;;;;;7391747;19;20142;-78
2022/04/19 02:36:44;;;;;;;2.57;1.57;;;10.00;99.90;;;;;;7389496;19;20133;-79
2022/04/19 02:39:11;;;;;;;2.73;2.00;;;9.90;99.90;;;;;;7394637;19;20162;-80
2022/04/19 02:41:37;;;;;;;1.60;1.40;;;10.30;99.90;;;;;;7390006;19;20138;-81
2022/04/19 02:44:09;;;;;;;3.20;1.97;;;9.90;99.90;;;;;;7391750;19;20143;-78
2022/04/19 02:46:35;;;;;;;4.10;2.00;;;9.90;99.90;;;;;;7394487;19;20146;-80
2022/04/19 02:49:05;;;;;;;3.17;1.80;;;9.70;99.90;;;;;;7390657;19;20146;-80
2022/04/19 02:51:33;;;;;;;1.73;1.50;;;9.90;99.90;;;;;;7396970;19;20454;-81
2022/04/19 02:54:00;;;;;;;2.10;1.73;;;10.00;99.90;;;;;;7396451;19;20586;-79
2022/04/19 02:56:25;;;;;;;2.80;2.30;;;10.20;99.90;;;;;;7390357;19;20130;-81
2022/04/19 02:58:51;;;;;;;3.27;1.60;;;10.50;99.90;;;;;;7392326;19;20139;-81
2022/04/19 03:01:18;;;;;;;3.50;1.70;;;10.30;99.90;;;;;;7390051;19;20146;-80
2022/04/19 03:03:44;;;;;;;2.13;1.70;;;9.90;99.90;;;;;;7389155;19;20147;-78
2022/04/19 03:06:10;;;;;;;2.47;1.83;;;9.90;99.90;;;;;;7390576;19;20210;-79
2022/04/19 03:08:37;;;;;;;3.43;1.83;;;9.80;99.90;;;;;;7393347;19;20135;-81
2022/04/19 03:11:05;;;;;;;3.37;2.10;;;9.60;99.90;;;;;;7390279;19;20146;-77
2022/04/19 03:13:32;;;;;;;3.13;2.20;;;9.40;99.90;;;;;;7391335;19;20139;-82
2022/04/19 03:15:58;;;;;;;2.57;1.80;;;9.60;99.90;;;;;;7390891;19;20127;-78
2022/04/19 03:18:24;;;;;;;3.83;2.10;;;9.60;99.90;;;;;;7389273;19;20153;-78
2022/04/19 03:20:50;;;;;;;3.73;1.97;;;9.80;99.90;;;;;;7390603;19;20164;-82
2022/04/19 03:28:47;;;;;;;3.17;1.80;;;10.30;99.90;;;;;;7400035;19;20158;-79
2022/04/19 03:31:14;;;;;;;4.10;2.10;;;10.40;99.90;;;;;;7391920;19;20963;-78
2022/04/19 03:33:40;;;;;;;3.90;2.20;;;10.40;99.90;;;;;;7388085;19;20130;-80
2022/04/19 03:36:09;;;;;;;3.40;2.17;;;10.30;99.90;;;;;;7391372;19;20167;-79
2022/04/19 03:38:35;;;;;;;4.77;2.57;;;10.10;99.90;;;;;;7392658;19;20602;-81
2022/04/19 03:41:02;;;;;;;3.93;2.30;;;10.40;99.90;;;;;;7390956;19;20127;-81
2022/04/19 03:43:28;;;;;;;2.67;2.00;;;10.50;99.90;;;;;;7386401;19;20529;-80
2022/04/19 03:45:54;;;;;;;3.00;2.00;;;10.50;99.90;;;;;;7388031;19;20176;-81
2022/04/19 03:48:20;;;;;;;5.67;2.10;;;10.40;99.90;;;;;;7387573;19;20614;-78
2022/04/19 03:50:46;;;;;;;3.50;1.93;;;10.30;99.90;;;;;;7389959;19;20146;-78
2022/04/19 03:53:11;;;;;;;2.63;1.90;;;10.30;99.90;;;;;;7391170;19;20158;-81
2022/04/19 03:55:37;;;;;;;3.07;1.87;;;10.00;99.90;;;;;;7387775;19;20154;-82
2022/04/19 03:58:03;;;;;;;4.93;2.23;;;9.90;99.90;;;;;;7389489;19;20130;-81
2022/04/19 04:00:30;;;;;;;4.80;2.37;;;9.90;99.90;;;;;;7389286;19;20140;-81
2022/04/19 04:02:55;;;;;;;4.90;2.30;;;10.00;99.90;;;;;;7387807;19;20122;-81
2022/04/19 04:05:24;;;;;;;3.47;2.17;;;10.10;99.90;;;;;;7387105;19;20137;-81
2022/04/19 04:07:51;;;;;;;2.80;1.93;;;10.20;99.90;;;;;;7387179;19;20191;-79
2022/04/19 04:10:16;;;;;;;3.63;2.10;;;10.30;99.90;;;;;;7386864;19;20225;-79
2022/04/19 04:12:42;;;;;;;3.67;2.10;;;10.30;99.90;;;;;;7389781;19;20771;-77
2022/04/19 04:15:08;;;;;;;3.87;2.17;;;10.20;99.90;;;;;;7392112;19;20582;-78
2022/04/19 04:17:35;;;;;;;4.60;2.07;;;10.10;99.90;;;;;;7385331;19;20138;-82
2022/04/19 04:20:02;;;;;;;2.53;1.90;;;9.70;99.90;;;;;;7386667;19;20146;-82
2022/04/19 04:22:28;;;;;;;4.97;2.03;;;9.70;99.90;;;;;;7388225;19;20135;-78
2022/04/19 04:24:54;;;;;;;2.63;1.83;;;9.70;99.90;;;;;;7389764;19;20154;-78
2022/04/19 04:27:20;;;;;;;2.70;1.90;;;9.80;99.90;;;;;;7387701;19;20162;-78
2022/04/19 04:29:46;;;;;;;3.57;2.00;;;9.70;99.90;;;;;;7385550;19;20163;-81
2022/04/19 04:32:12;;;;;;;3.77;1.87;;;9.80;99.90;;;;;;7389352;19;20130;-77
2022/04/19 04:34:37;;;;;;;4.13;2.13;;;9.90;99.90;;;;;;7389530;19;20138;-78
2022/04/19 04:37:03;;;;;;;4.03;2.30;;;10.20;99.90;;;;;;7391049;19;20169;-80
2022/04/19 04:39:29;;;;;;;4.00;2.30;;;10.10;99.90;;;;;;7390907;19;20151;-78
2022/04/19 04:41:55;;;;;;;4.10;1.60;;;10.10;99.90;;;;;;7385578;19;20177;-78
2022/04/19 04:44:21;;;;;;;4.23;1.90;;;10.00;99.90;;;;;;7387915;19;20138;-78
2022/04/19 04:49:36;;;;;;;2.27;1.70;;;10.00;99.90;;;;;;7386807;19;20158;-80
2022/04/19 04:52:13;;;;;;;7.17;1.97;;;9.30;99.90;;;;;;7387202;19;20180;-81
2022/04/19 04:54:42;;;;;;;4.40;1.80;;;9.30;99.90;;;;;;7388823;19;20209;-77
2022/04/19 04:57:08;;;;;;;4.33;2.50;;;9.50;99.90;;;;;;7389967;19;20217;-78
2022/04/19 04:59:35;;;;;;;4.03;2.00;;;9.70;99.90;;;;;;7391909;19;20170;-80
2022/04/19 05:02:01;;;;;;;3.67;2.30;;;9.80;99.90;;;;;;7386709;19;20856;-81
2022/04/19 05:04:27;;;;;;;4.80;2.07;;;9.80;99.90;;;;;;7387372;19;20151;-78
2022/04/19 05:06:53;;;;;;;3.07;1.80;;;9.80;99.90;;;;;;7394716;19;20160;-78
2022/04/19 05:09:20;;;;;;;3.77;2.17;;;9.50;99.90;;;;;;7394141;19;20130;-78
2022/04/19 05:11:46;;;;;;;4.20;2.00;;;9.50;99.90;;;;;;7393476;19;20486;-77
2022/04/19 05:14:16;;;;;;;3.73;2.43;;;9.80;99.90;;;;;;7394941;19;20147;-80
2022/04/19 05:16:42;;;;;;;4.47;2.57;;;9.90;99.90;;;;;;7394333;19;20141;-79
2022/04/19 05:19:09;;;;;;;5.07;2.57;;;10.00;99.90;;;;;;7398678;19;20122;-80
2022/04/19 05:21:38;;;;;;;7.43;2.60;;;10.00;99.90;;;;;;7395662;19;20162;-80
2022/04/19 05:24:08;;;;;;;3.97;2.57;;;10.10;99.90;;;;;;7393855;19;20123;-80
2022/04/19 05:26:34;;;;;;;4.20;2.70;;;10.10;99.90;;;;;;7392746;19;20142;-80
2022/04/19 05:29:00;;;;;;;5.80;2.70;;;9.70;99.90;;;;;;7393112;19;20156;-80
2022/04/19 05:31:26;;;;;;;5.90;2.90;;;9.90;99.90;;;;;;7395982;19;20542;-77
2022/04/19 05:33:52;;;;;;;7.20;2.90;;;10.10;99.90;;;;;;7393326;19;20154;-78
2022/04/19 05:36:18;;;;;;;6.17;3.20;;;10.10;99.90;;;;;;7392100;19;20717;-79
2022/04/19 05:38:44;;;;;;;11.30;3.27;;;10.10;99.90;;;;;;7393659;19;20218;-79
2022/04/19 05:41:10;;;;;;;4.67;3.00;;;10.20;99.90;;;;;;7395663;19;20199;-78
2022/04/19 05:43:36;;;;;;;4.43;2.63;;;10.20;99.90;;;;;;7399882;19;20155;-80
2022/04/19 05:46:03;;;;;;;7.53;3.43;;;10.30;99.90;;;;;;7396038;19;20626;-78
2022/04/19 05:48:29;;;;;;;4.80;2.70;;;10.40;99.90;;;;;;7396257;19;20139;-79
2022/04/19 05:50:55;;;;;;;5.23;2.43;;;10.40;99.90;;;;;;7397605;19;20135;-79
2022/04/19 05:53:21;;;;;;;5.00;2.83;;;10.40;99.90;;;;;;7399440;19;20165;-79
2022/04/19 05:55:47;;;;;;;4.20;2.40;;;10.30;99.90;;;;;;7396306;19;20134;-80
2022/04/19 05:58:13;;;;;;;4.07;2.30;;;10.30;99.90;;;;;;7392751;19;20489;-78
2022/04/19 06:00:39;;;;;;;4.63;2.53;;;10.50;99.90;;;;;;7392822;19;20139;-81
2022/04/19 06:05:51;;;;;;;3.73;2.50;;;10.50;99.90;;;;;;7398794;19;20150;-80
2022/04/19 06:08:17;;;;;;;4.33;2.50;;;10.60;99.90;;;;;;7392230;19;20147;-81
2022/04/19 06:10:42;;;;;;;4.67;2.53;;;10.60;99.90;;;;;;7393545;19;20170;-79
2022/04/19 06:13:08;;;;;;;6.10;2.40;;;10.60;99.90;;;;;;7394107;19;20134;-81
2022/04/19 06:15:35;;;;;;;3.60;2.60;;;10.60;99.90;;;;;;7396638;19;20134;-78
2022/04/19 06:18:01;;;;;;;3.20;2.30;;;10.60;99.90;;;;;;7389751;19;20198;-79
2022/04/19 06:20:27;;;;;;;3.20;2.17;;;10.50;99.90;;;;;;7393733;19;20184;-78
2022/04/19 06:22:53;;;;;;;3.23;2.40;;;10.60;99.90;;;;;;7394819;19;20824;-78
2022/04/19 06:25:19;;;;;;;4.47;2.60;;;10.60;99.90;;;;;;7400858;19;20139;-78
2022/04/19 06:27:45;;;;;;;3.47;2.43;;;10.60;99.90;;;;;;7390894;19;20206;-80
2022/04/19 06:30:13;;;;;;;4.83;2.30;;;10.80;99.90;;;;;;7386011;19;20159;-78
2022/04/19 06:32:41;;;;;;;4.07;2.50;;;10.70;99.90;;;;;;7393478;19;20662;-80
2022/04/19 06:35:08;;;;;;;7.10;2.63;;;10.70;99.90;;;;;;7390568;19;20227;-77
2022/04/19 06:37:34;;;;;;;3.90;2.53;;;10.80;99.90;;;;;;7388685;19;20130;-80
2022/04/19 06:40:01;;;;;;;4.70;2.40;;;10.80;99.90;;;;;;7392415;19;20143;-79
2022/04/19 06:42:28;;;;;;;3.40;2.37;;;10.90;99.90;;;;;;7389755;19;20154;-79
2022/04/19 06:44:53;;;;;;;4.10;2.50;;;11.00;99.80;;;;;;7390673;19;20147;-80
2022/04/19 06:47:19;;;;;;;3.13;2.30;;;11.00;99.80;;;;;;7393177;19;20139;-78
2022/04/19 06:49:45;;;;;;;3.83;2.30;;;10.90;99.70;;;;;;7392068;19;20131;-79
2022/04/19 06:52:11;;;;;;;3.63;2.17;;;11.10;99.80;;;;;;7389897;19;20130;-79
2022/04/19 06:54:37;;;;;;;3.10;2.27;;;11.10;99.80;;;;;;7391081;19;20138;-79
2022/04/19 06:57:03;;;;;;;3.67;2.67;;;11.40;99.70;;;;;;7389451;19;20135;-80
2022/04/19 06:59:29;;;;;;;8.50;2.93;;;11.50;99.40;;;;;;7394244;19;20613;-79
2022/04/19 07:01:55;;;;;;;5.23;2.40;;;11.70;99.30;;;;;;7393582;19;20138;-78
2022/04/19 07:04:21;;;;;;;6.60;2.63;;;12.00;98.90;;;;;;7389105;19;20220;-79
2022/04/19 07:06:48;;;;;;;4.70;2.90;;;12.40;98.40;;;;;;7389936;19;20584;-78
2022/04/19 07:09:14;;;;;;;5.30;3.10;;;12.80;97.90;;;;;;7393081;19;20157;-80
2022/04/19 07:11:41;;;;;;;5.13;2.73;;;13.30;97.20;;;;;;7391519;19;20130;-80
2022/04/19 07:14:07;;;;;;;6.73;2.87;;;13.70;96.50;;;;;;7389863;19;20170;-79
2022/04/19 07:16:33;;;;;;;4.77;2.70;;;14.10;95.80;;;;;;7390489;19;20138;-79
2022/04/19 07:18:58;;;;;;;4.37;2.60;;;14.40;95.40;;;;;;7393269;19;20727;-81
2022/04/19 07:27:06;;;;;;;4.97;2.40;;;15.10;94.10;;;;;;7399811;19;20188;-80
2022/04/19 07:29:32;;;;;;;3.65;2.60;;;15.20;94.10;;;;;;7388972;19;20643;-79
2022/04/19 07:31:58;;;;;;;4.32;2.67;;;15.20;93.90;;;;;;7395162;19;20513;-79
2022/04/19 07:34:24;;;;;;;3.78;2.70;;;15.30;93.60;;;;;;7397137;19;20130;-79
2022/04/19 07:36:51;;;;;;;5.10;2.60;;;15.30;93.80;;;;;;7391949;19;20134;-78
2022/04/19 07:39:18;;;;;;;4.18;2.70;;;15.50;93.20;;;;;;7395662;19;20586;-79
2022/04/19 07:41:46;;;;;;;4.95;2.78;;;15.80;92.80;;;;;;7393178;19;20146;-79
2022/04/19 07:44:14;;;;;;;4.45;2.85;;;16.00;92.30;;;;;;7392127;19;20166;-77
2022/04/19 07:46:42;;;;;;;5.05;3.08;;;15.90;92.30;;;;;;7389829;19;20139;-79
2022/04/19 07:49:08;;;;;;;4.90;2.80;;;15.90;92.60;;;;;;7390759;19;20139;-79
2022/04/19 07:51:35;;;;;;;6.75;2.80;;;15.80;92.10;;;;;;7387293;19;20138;-78
2022/04/19 07:54:01;;;;;;;7.47;2.70;;;16.00;92.00;;;;;;7388976;19;20134;-78
2022/04/19 07:56:27;;;;;;;6.50;2.95;;;16.20;91.80;;;;;;7390204;19;20127;-79
2022/04/19 07:58:53;;;;;;;5.38;2.88;;;16.30;91.70;;;;;;7391855;19;20143;-79
2022/04/19 08:01:19;;;;;;;5.20;2.65;;;16.20;91.70;;;;;;7389859;19;20131;-78
2022/04/19 08:03:46;;;;;;;6.18;2.78;;;16.40;91.60;;;;;;7392679;19;20158;-78
2022/04/19 08:06:11;;;;;;;5.97;3.17;;;16.60;91.30;;;;;;7389954;19;20152;-79
2022/04/19 08:08:43;;;;;;;5.72;3.00;;;16.30;91.30;;;;;;7389712;19;20594;-77
2022/04/19 08:11:09;;;;;;;4.90;3.00;;;16.30;91.40;;;;;;7391972;19;20142;-79
2022/04/19 08:13:35;;;;;;;5.35;2.88;;;16.10;91.50;;;;;;7395259;19;20578;-77
2022/04/19 08:16:01;;;;;;;3.92;2.83;;;16.00;91.60;;;;;;7389416;19;20122;-78
2022/04/19 08:18:27;;;;;;;6.63;3.67;;;15.90;91.60;;;;;;7388109;19;20115;-78
2022/04/19 08:20:53;;;;;;;5.55;2.95;;;15.90;91.60;;;;;;7387887;19;20131;-78
2022/04/19 08:23:19;;;;;;;4.63;2.75;;;15.90;91.60;;;;;;7387322;19;20186;-77
2022/04/19 08:25:45;;;;;;;4.18;3.10;;;15.80;91.30;;;;;;7388843;19;20131;-78
2022/04/19 08:28:11;;;;;;;5.50;2.60;;;15.70;91.10;;;;;;7390062;19;20202;-79
2022/04/19 08:30:37;;;;;;;5.63;3.13;;;15.60;91.10;;;;;;7388362;19;20625;-78
2022/04/19 08:33:03;;;;;;;3.90;2.55;;;15.60;90.80;;;;;;7390149;19;20143;-77
2022/04/19 08:35:29;;;;;;;4.50;2.60;;;15.50;90.60;;;;;;7387077;19;20207;-77
2022/04/19 08:37:55;;;;;;;4.03;2.70;;;15.70;90.40;;;;;;7386835;19;20126;-78
2022/04/19 08:40:20;;;;;;;3.20;2.40;;;15.60;90.10;;;;;;7391307;19;20153;-81
2022/04/19 08:42:47;;;;;;;3.95;2.60;;;15.80;89.60;;;;;;7393123;19;20174;-79
2022/04/19 08:45:15;;;;;;;4.28;2.35;;;15.90;88.10;;;;;;7394405;19;20177;-79
2022/04/19 08:47:46;;;;;;;3.90;2.70;;;16.00;87.70;;;;;;7394542;19;20137;-79
2022/04/19 08:50:20;;;;;;;4.10;2.45;;;16.00;87.50;;;;;;7394909;19;20138;-79
2022/04/19 08:52:47;;;;;;;5.75;2.60;;;15.90;88.20;;;;;;7396762;19;20131;-80
2022/04/19 08:57:58;;;;;;;3.25;2.28;;;16.10;88.50;;;;;;7395394;19;20126;-79
2022/04/19 09:00:25;;;;;;;3.90;2.15;;;16.10;88.10;;;;;;7398444;19;20485;-79
2022/04/19 09:02:52;;;;;;;3.40;2.58;;;16.20;88.00;;;;;;7395243;19;20157;-79
2022/04/19 09:05:23;;;;;;;4.28;2.20;;;16.40;87.00;;;;;;7395273;19;20214;-78
2022/04/19 09:07:51;;;;;;;5.47;2.22;;;16.60;85.70;;;;;;7393246;19;20134;-77
2022/04/19 09:10:33;;;;;;;3.33;2.30;;;16.70;85.20;;;;;;7393303;19;20134;-80
2022/04/19 09:13:04;;;;;;;4.90;2.55;;;16.60;85.30;;;;;;7400363;19;20167;-77
2022/04/19 09:15:39;;;;;;;5.20;3.50;;;16.70;85.10;;;;;;7397657;19;20126;-78
2022/04/19 09:18:21;;;;;;;5.25;2.65;;;16.90;85.60;;;;;;7395657;19;20236;-76
2022/04/19 09:20:50;;;;;;;4.88;2.60;;;17.00;84.80;;;;;;7399225;19;20122;-78
2022/04/19 09:23:16;;;;;;;3.83;2.78;;;17.10;84.30;;;;;;7394799;19;20154;-76
2022/04/19 09:25:43;;;;;;;3.47;2.13;;;17.00;84.10;;;;;;7393367;19;20131;-79
2022/04/19 09:28:18;;;;;;;4.88;2.33;;;16.80;83.50;;;;;;7397334;19;20127;-79
2022/04/19 09:30:48;;;;;;;2.72;2.03;;;16.90;84.10;;;;;;7393547;19;20257;-77
2022/04/19 09:33:21;;;;;;;3.20;1.95;;;17.00;83.90;;;;;;7396700;19;20134;-77
2022/04/19 09:35:55;;;;;;;3.10;1.98;;;17.00;82.80;;;;;;7397610;19;20137;-79
2022/04/19 09:38:35;;;;;;;3.38;1.65;;;17.20;82.40;;;;;;7392503;19;20150;-79
2022/04/19 09:41:03;;;;;;;2.97;1.90;;;17.30;81.50;;;;;;7394311;19;20145;-79
2022/04/19 09:43:30;;;;;;;2.22;1.70;;;17.50;81.20;;;;;;7395352;19;20151;-79
2022/04/19 09:45:58;;;;;;;2.42;1.73;;;17.70;79.10;;;;;;7403945;19;20130;-77
2022/04/19 09:48:26;;;;;;;5.35;2.10;;;17.80;80.40;;;;;;7391483;19;20174;-77
2022/04/19 09:51:04;;;;;;;3.40;2.30;;;17.70;80.20;;;;;;7392355;19;20134;-77
2022/04/19 09:53:44;;;;;;;3.78;2.45;;;17.40;81.20;;;;;;7390690;19;20157;-78
2022/04/19 09:56:16;;;;;;;3.33;2.25;;;17.20;81.70;;;;;;7392428;19;20210;-74
2022/04/19 09:58:44;;;;;;;3.33;2.30;;;17.00;82.20;;;;;;7399361;19;20819;-75
2022/04/19 10:08:10;;;;;;;3.38;2.60;;;17.00;82.20;;;;;;7395274;19;20499;-76
2022/04/19 10:09:28;;;;;;;3.40;1.98;;;17.00;80.40;;;;;;7393610;19;20206;-78
2022/04/19 10:11:54;;;;;;;6.18;2.00;;;17.10;79.60;;;;;;7393488;19;20146;-79
2022/04/19 10:14:22;;;;;;;2.72;1.80;;;17.30;80.00;;;;;;7393448;19;20143;-77
2022/04/19 10:16:49;;;;;;;4.70;2.10;;;17.40;78.80;;;;;;7392295;19;20493;-79
2022/04/19 10:19:16;;;;;;;3.40;2.20;;;17.20;78.80;;;;;;7396771;19;20497;-81
2022/04/19 10:21:44;;;;;;;4.70;3.25;;;17.10;79.40;;;;;;7394026;19;20142;-78
2022/04/19 10:24:15;;;;;;;2.72;1.80;;;17.10;78.60;;;;;;7394442;19;20123;-77
2022/04/19 10:26:46;;;;;;;3.58;2.13;;;17.10;78.60;;;;;;7390857;19;20130;-80
2022/04/19 10:29:30;;;;;;;3.67;2.53;;;17.20;77.70;;;;;;7390509;19;20657;-77
2022/04/19 10:32:02;;;;;;;1.90;1.48;;;17.20;76.80;;;;;;7391364;19;20139;-79
2022/04/19 10:34:30;;;;;;;3.25;1.85;;;17.30;75.90;;;;;;7391942;19;20564;-79
2022/04/19 10:37:03;;;;;;;2.42;1.63;;;17.30;75.10;;;;;;7390056;19;20146;-79
2022/04/19 10:39:33;;;;;;;2.30;1.50;;;17.30;74.10;;;;;;7396614;19;20591;-79
2022/04/19 10:42:05;;;;;;;3.10;1.77;;;17.50;72.50;;;;;;7395384;19;20458;-77
2022/04/19 10:44:43;;;;;;;2.67;2.00;;;17.50;73.20;;;;;;7397365;19;20562;-77
2022/04/19 10:47:12;;;;;;;2.92;1.88;;;17.60;73.40;;;;;;7390153;19;20666;-81
2022/04/19 10:49:48;;;;;;;3.15;1.88;;;17.50;73.10;;;;;;7393244;19;20131;-78
2022/04/19 10:52:35;;;;;;;3.55;2.10;;;17.40;73.60;;;;;;7393311;19;20215;-80
2022/04/19 10:55:06;;;;;;;4.32;2.30;;;17.40;73.90;;;;;;7392351;19;20158;-78
2022/04/19 10:58:07;;;;;;;2.88;1.88;;;17.30;74.10;;;;;;7389446;19;20143;-78
2022/04/19 11:00:40;;;;;;;3.50;2.35;;;17.30;74.10;;;;;;7395146;19;20142;-77
2022/04/19 11:03:10;;;;;;;2.58;1.88;;;17.40;74.80;;;;;;7393933;19;20142;-78
2022/04/19 11:05:45;;;;;;;3.85;2.40;;;17.60;74.10;;;;;;7391056;19;20138;-76
2022/04/19 11:08:26;;;;;;;4.38;2.00;;;17.60;74.10;;;;;;7388081;19;20527;-79
2022/04/19 11:11:20;;;;;;;2.90;2.00;;;17.60;74.60;;;;;;7389207;19;20151;-78
2022/04/19 11:14:36;;;;;;;4.45;2.13;;;17.60;73.90;;;;;;7391618;19;20142;-77
2022/04/19 11:17:28;;;;;;;3.92;2.38;;;17.70;73.30;;;;;;7390004;19;20130;-78
2022/04/19 11:20:06;;;;;;;6.90;2.83;;;17.60;72.50;;;;;;7389605;19;20146;-79
2022/04/19 11:22:46;;;;;;;3.75;2.03;;;17.30;73.40;;;;;;7394003;19;20130;-78
2022/04/19 11:25:12;;;;;;;3.42;2.15;;;17.50;73.50;;;;;;7396542;19;20131;-79
2022/04/19 11:27:53;;;;;;;3.03;1.73;;;17.60;73.20;;;;;;7395013;19;20157;-77
2022/04/19 11:30:23;;;;;;;6.43;2.63;;;17.60;73.20;;;;;;7392660;19;20512;-78
2022/04/19 11:32:53;;;;;;;2.72;1.92;;;17.70;72.70;;;;;;7391676;19;20135;-79
2022/04/19 11:35:19;;;;;;;4.25;2.97;;;17.60;72.90;;;;;;7392754;19;20622;-79
2022/04/19 11:37:46;;;;;;;3.40;2.30;;;17.70;72.60;;;;;;7389824;19;20150;-78
2022/04/19 11:48:47;;;;;;;2.95;1.77;;;17.70;71.40;;;;;;7390967;19;20467;-77
2022/04/19 11:51:14;;;;;;;2.88;1.98;;;17.90;69.70;;;;;;7395055;19;20137;-78
2022/04/19 11:53:41;;;;;;;2.70;2.10;;;17.90;69.80;;;;;;7394212;19;20151;-78
2022/04/19 11:56:07;;;;;;;3.75;2.80;;;17.80;71.30;;;;;;7389494;19;20146;-77
2022/04/19 11:58:33;;;;;;;3.22;2.22;;;18.00;72.10;;;;;;7393379;19;20175;-78
2022/04/19 12:01:20;;;;;;;2.72;2.05;;;18.10;70.50;;;;;;7393655;19;20134;-78
2022/04/19 12:03:46;;;;;;;2.95;2.30;;;18.00;71.40;;;;;;7396059;19;20126;-76
2022/04/19 12:06:14;;;;;;;4.05;2.92;;;18.10;71.20;;;;;;7389310;19;20150;-79
2022/04/19 12:08:51;;;;;;;2.47;1.90;;;18.30;71.20;;;;;;7389732;19;20689;-78
2022/04/19 12:11:37;;;;;;;3.45;2.17;;;18.30;69.40;;;;;;7395840;19;20126;-76
2022/04/19 12:14:03;;;;;;;3.83;2.30;;;18.20;68.80;;;;;;7389819;19;20613;-77
2022/04/19 12:16:34;;;;;;;4.05;2.53;;;18.20;69.60;;;;;;7389978;19;20122;-77
2022/04/19 12:19:08;;;;;;;3.80;2.72;;;18.20;70.30;;;;;;7387948;19;20142;-77
2022/04/19 12:21:39;;;;;;;5.50;3.30;;;18.20;69.80;;;;;;7393426;19;20134;-78
2022/04/19 12:24:07;;;;;;;4.93;2.75;;;18.20;70.60;;;;;;7388553;19;20142;-78
2022/04/19 12:26:34;;;;;;;4.95;2.88;;;18.30;70.60;;;;;;7388989;19;20170;-78
2022/04/19 12:29:12;;;;;;;3.15;2.35;;;18.30;69.80;;;;;;7385193;19;20519;-78
2022/04/19 12:31:46;;;;;;;3.20;2.35;;;18.40;69.60;;;;;;7392519;19;20158;-78
2022/04/19 12:34:13;;;;;;;4.85;2.30;;;18.40;69.40;;;;;;7387511;19;20142;-77
2022/04/19 12:36:46;;;;;;;3.35;2.15;;;18.30;69.70;;;;;;7387898;19;20163;-78
2022/04/19 12:39:15;;;;;;;4.15;2.35;;;18.30;69.90;;;;;;7390640;19;20130;-76
2022/04/19 12:41:45;;;;;;;4.38;2.50;;;18.30;68.80;;;;;;7388909;19;20142;-78
2022/04/19 12:44:19;;;;;;;4.57;2.38;;;18.30;69.20;;;;;;7391355;19;20484;-77
2022/04/19 12:46:50;;;;;;;5.97;2.40;;;18.40;69.70;;;;;;7386555;19;20490;-78
2022/04/19 12:49:23;;;;;;;3.83;2.20;;;18.40;69.40;;;;;;7386598;19;20512;-78
2022/04/19 12:52:02;;;;;;;3.92;2.35;;;18.30;68.50;;;;;;7389761;19;20130;-78
2022/04/19 12:54:29;;;;;;;3.85;2.45;;;18.30;68.90;;;;;;7385833;19;20142;-77
2022/04/19 12:57:15;;;;;;;3.85;2.25;;;18.30;69.20;;;;;;7384160;19;20615;-79
2022/04/19 12:59:44;;;;;;;3.63;2.30;;;18.50;68.30;;;;;;7388180;19;20131;-78
2022/04/19 13:02:13;;;;;;;3.33;1.88;;;18.50;68.00;;;;;;7406409;19;20150;-77
2022/04/19 13:04:40;;;;;;;4.00;2.55;;;18.60;68.70;;;;;;7391775;19;20139;-77
2022/04/19 13:12:35;;;;;;;5.00;2.80;;;18.60;68.90;;;;;;7387568;19;20133;-79
2022/04/19 13:15:04;;;;;;;5.22;2.90;;;18.70;69.50;;;;;;7389348;19;20143;-77
2022/04/19 13:17:39;;;;;;;3.95;2.78;;;18.80;69.60;;;;;;7388055;19;20572;-78
2022/04/19 13:20:06;;;;;;;4.20;3.00;;;18.80;69.20;;;;;;7386953;19;20379;-78
2022/04/19 13:22:33;;;;;;;4.05;2.45;;;18.70;69.80;;;;;;7395448;19;20147;-78
2022/04/19 13:25:00;;;;;;;3.00;2.45;;;18.80;68.70;;;;;;7399113;19;20523;-78
2022/04/19 13:27:33;;;;;;;4.78;2.78;;;18.90;68.90;;;;;;7393245;19;20497;-79
2022/04/19 13:30:00;;;;;;;4.88;2.70;;;18.70;69.20;;;;;;7393746;19;20610;-78
2022/04/19 13:32:26;;;;;;;3.97;2.63;;;18.70;69.60;;;;;;7394607;19;20135;-78
2022/04/19 13:34:52;;;;;;;3.83;2.45;;;18.70;69.30;;;;;;7392888;19;20154;-78
2022/04/19 13:38:23;;;;;;;4.78;2.30;;;18.60;70.10;;;;;;7391840;19;20155;-78